CSAV Loncomilla — VRFB3 — position and weather

sailwx.info

Track history (hours):
 
Tides and Currents Weather Stations Pressure Air Temp Water Temp Dewpoint Dewpoint Depression Visibility Wind Speed Wind Dir Waves Ship Positions

CSAV Loncomilla

Last reported at 2014-Jul-06 14:32 UTC. Time now 2014-Jul-25 03:43 UTC.
Position N 25°41' W 080°01'.
Warning: this ship's position is 18 days out of date.

Length 261 m; draft 10.1 m.

MMSI: 477207400.

Date/timePositionNaut miles runAvg speedWind from/ knotsBaromVisibWave heightAir tempDewpointWater temp
2014-Jul-06 14:32N 25°41' W 080°01'1515.2
2014-Jul-06 13:33N 25°56' W 079°59'1111.5
2014-Jul-06 12:33N 26°07' W 080°03'4 4.0
2014-Jul-06 11:31N 26°04' W 080°07'0 0.0
2014-Jul-06 10:22N 26°04' W 080°07'0 0.0
2014-Jul-06 09:22N 26°04' W 080°07'0 0.0
2014-Jul-06 08:25N 26°04' W 080°07'0 0.0
2014-Jul-06 07:25N 26°04' W 080°07'0 0.0
2014-Jul-06 06:25N 26°04' W 080°07'0 0.0
2014-Jul-06 05:28N 26°04' W 080°07'0 0.0
2014-Jul-06 04:28N 26°04' W 080°07'0 0.0
2014-Jul-06 03:31N 26°04' W 080°07'0 0.0
2014-Jul-06 02:31N 26°04' W 080°07'0 0.0
2014-Jul-06 01:31N 26°04' W 080°07'0 0.0
2014-Jul-06 00:31N 26°04' W 080°07'0 0.0
2014-Jul-05 23:31N 26°04' W 080°07'0 0.2
2014-Jul-05 22:33N 26°05' W 080°07'5 4.6
2014-Jul-05 21:33N 26°07' W 080°03'2 2.2
2014-Jul-05 20:33N 26°09' W 080°01'5 5.1
2014-Jul-05 19:33N 26°14' W 079°60'6 5.8
2014-Jul-05 18:33N 26°19' W 079°58'6 5.7
2014-Jul-05 17:33N 26°25' W 079°58'9 9.3
2014-Jul-05 16:33N 26°34' W 079°56'1111.3
2014-Jul-05 15:33N 26°45' W 079°54'1110.8
2014-Jul-05 14:33N 26°56' W 079°53'1110.7
2014-Jul-05 13:33N 27°07' W 079°53'  
2014-Jul-03 01:06N 34°30' W 075°46'916.8
2014-Jul-03 00:33N 34°37' W 075°39'13713.6
2014-Jul-02 14:32N 36°53' W 075°54'1212.4
2014-Jul-02 13:33N 37°02' W 076°04'1817.8
2014-Jul-02 12:33N 37°20' W 076°05'9018.1
2014-Jul-02 07:33N 38°49' W 076°25'1716.8
2014-Jul-02 06:33N 39°06' W 076°24'1111.3
2014-Jul-02 05:33N 39°14' W 076°33'1 0.9
2014-Jul-02 04:32N 39°15' W 076°33'0 0.0
2014-Jul-02 03:32N 39°15' W 076°33'0 0.0
2014-Jul-02 02:32N 39°15' W 076°33'0 0.0
2014-Jul-02 01:32N 39°15' W 076°33'0 0.0
2014-Jul-02 00:30N 39°15' W 076°33'0 0.0
2014-Jul-01 23:32N 39°15' W 076°33'0 0.0
2014-Jul-01 22:32N 39°15' W 076°33'0 0.0
2014-Jul-01 21:32N 39°15' W 076°33'0 0.0
2014-Jul-01 20:32N 39°15' W 076°33'0 0.0
2014-Jul-01 19:32N 39°15' W 076°33'0 0.0
2014-Jul-01 18:29N 39°15' W 076°33'0 0.0
2014-Jul-01 17:32N 39°15' W 076°33'0 0.0
2014-Jul-01 16:32N 39°15' W 076°33'0 0.0
2014-Jul-01 15:32N 39°15' W 076°33'0 0.0
2014-Jul-01 14:32N 39°15' W 076°33'0 0.0
2014-Jul-01 13:32N 39°15' W 076°33'3 3.2
2014-Jul-01 12:33N 39°12' W 076°31'1110.8
2014-Jul-01 11:33N 39°03' W 076°23'1716.6
2014-Jul-01 10:33N 38°47' W 076°25'3919.7
2014-Jul-01 08:33N 38°09' W 076°14'2019.7
2014-Jul-01 07:33N 37°49' W 076°10'1918.6
2014-Jul-01 06:33N 37°32' W 076°02'2020.0
2014-Jul-01 05:33N 37°12' W 076°09'1818.5
2014-Jul-01 04:33N 36°56' W 075°57'1212.4
2014-Jul-01 03:34N 36°49' W 075°44'1615.5
2014-Jul-01 02:33N 36°59' W 075°29'1818.5
2014-Jul-01 01:34N 37°16' W 075°18'1918.7
2014-Jul-01 00:32N 37°32' W 075°07'1919.2
2014-Jun-30 23:34N 37°49' W 074°56'1818.4
2014-Jun-30 22:33N 38°05' W 074°44'1919.1
2014-Jun-30 21:33N 38°21' W 074°30'1918.9
2014-Jun-30 20:33N 38°37' W 074°17'1918.9
2014-Jun-30 19:33N 38°52' W 074°03'1818.3
2014-Jun-30 18:33N 39°10' W 073°56'1918.8
2014-Jun-30 17:33N 39°28' W 073°54'1918.6
2014-Jun-30 16:33N 39°47' W 073°53'1818.3
2014-Jun-30 15:33N 40°05' W 073°51'1717.4
2014-Jun-30 14:33N 40°22' W 073°48'1211.9
2014-Jun-30 13:34N 40°31' W 073°59'10 9.6
2014-Jun-30 12:33N 40°40' W 074°04'1 1.1
2014-Jun-30 11:33N 40°40' W 074°05'0 0.0
2014-Jun-30 10:32N 40°40' W 074°05'0 0.0
2014-Jun-30 09:32N 40°40' W 074°05'0 0.0
2014-Jun-30 08:32N 40°40' W 074°05'0 0.0
2014-Jun-30 07:33N 40°40' W 074°05'0 0.0
2014-Jun-30 06:32N 40°40' W 074°05'0 0.0
2014-Jun-30 05:32N 40°40' W 074°05'0 0.0
2014-Jun-30 04:32N 40°40' W 074°05'0 0.0
2014-Jun-30 03:32N 40°40' W 074°05'0 0.0
2014-Jun-30 02:33N 40°40' W 074°05'0 0.0
2014-Jun-30 01:30N 40°40' W 074°05'0 0.0
2014-Jun-30 00:32N 40°40' W 074°05'0 0.0
2014-Jun-29 23:32N 40°40' W 074°05'0 0.0
2014-Jun-29 22:32N 40°40' W 074°05'2 2.0
2014-Jun-29 21:33N 40°39' W 074°03'1111.1
2014-Jun-29 20:33N 40°30' W 073°55'1110.8
2014-Jun-29 19:33N 40°24' W 073°43'9 8.9
2014-Jun-29 18:33N 40°19' W 073°33'1110.7
2014-Jun-29 17:33N 40°14' W 073°21'9 9.1
2014-Jun-29 16:34N 40°12' W 073°09'1 1.2
2014-Jun-29 15:33N 40°13' W 073°09'1 1.2
2014-Jun-29 14:34N 40°12' W 073°08'1 0.9
2014-Jun-29 13:33N 40°12' W 073°07'0 0.4
2014-Jun-29 12:31N 40°12' W 073°06'0 0.1
2014-Jun-29 11:31N 40°12' W 073°06'0 0.0
2014-Jun-29 10:31N 40°12' W 073°06'0 0.0
2014-Jun-29 09:31N 40°12' W 073°06'0 0.0
2014-Jun-29 08:31N 40°12' W 073°06'0 0.1
2014-Jun-29 07:31N 40°12' W 073°06'0 0.0
2014-Jun-29 06:31N 40°12' W 073°06'0 0.1
2014-Jun-29 05:31N 40°12' W 073°06'0 0.0
2014-Jun-29 04:31N 40°12' W 073°06'0 0.0
2014-Jun-29 03:31N 40°12' W 073°06'0 0.1
2014-Jun-29 02:31N 40°12' W 073°06'0 0.1
2014-Jun-29 01:31N 40°12' W 073°06'0 0.1
2014-Jun-29 00:31N 40°12' W 073°06'0 0.0
2014-Jun-28 23:31N 40°12' W 073°06'0 0.0
2014-Jun-28 22:31N 40°12' W 073°06'0 0.0
2014-Jun-28 21:31N 40°12' W 073°06'0 0.0
2014-Jun-28 20:31N 40°12' W 073°06'0 0.0
2014-Jun-28 19:31N 40°12' W 073°06'0 0.0
2014-Jun-28 18:31N 40°12' W 073°06'0 0.0
2014-Jun-28 17:31N 40°12' W 073°06'0 0.1
2014-Jun-28 16:31N 40°12' W 073°06'0 0.0
2014-Jun-28 15:25N 40°12' W 073°06'0 0.0
2014-Jun-28 14:31N 40°12' W 073°06'0 0.0
2014-Jun-28 13:31N 40°12' W 073°06'0 0.0
2014-Jun-28 12:31N 40°12' W 073°06'0 0.0
2014-Jun-28 11:31N 40°12' W 073°06'0 0.1
2014-Jun-28 10:31N 40°12' W 073°06'0 0.1
2014-Jun-28 09:31N 40°12' W 073°06'0 0.1
2014-Jun-28 08:31N 40°12' W 073°06'0 0.0
2014-Jun-28 07:28N 40°12' W 073°06'0 0.0
2014-Jun-28 06:31N 40°12' W 073°06'0 0.0
2014-Jun-28 05:31N 40°12' W 073°06'0 0.0
2014-Jun-28 04:31N 40°12' W 073°06'0 0.0
2014-Jun-28 03:31N 40°12' W 073°06'0 0.0
2014-Jun-28 02:31N 40°12' W 073°06'0 0.0
2014-Jun-28 01:31N 40°12' W 073°06'0 0.0
2014-Jun-28 00:31N 40°12' W 073°06'0 0.0
2014-Jun-27 23:31N 40°12' W 073°06'0 0.0
2014-Jun-27 22:31N 40°12' W 073°06'0 0.0
2014-Jun-27 21:31N 40°12' W 073°06'0 0.0
2014-Jun-27 16:28N 40°12' W 073°06'0 0.0
2014-Jun-27 14:28N 40°12' W 073°06'0 0.0
2014-Jun-27 13:31N 40°12' W 073°06'0 0.0
2014-Jun-27 12:31N 40°12' W 073°06'0 0.0
2014-Jun-27 11:28N 40°12' W 073°06'0 0.0
2014-Jun-27 10:31N 40°12' W 073°06'0 0.0
2014-Jun-27 09:31N 40°12' W 073°06'0 0.0
2014-Jun-27 08:28N 40°12' W 073°06'0 0.0
2014-Jun-27 07:31N 40°12' W 073°06'0 0.0
2014-Jun-27 06:22N 40°12' W 073°06'0 0.0
2014-Jun-27 05:28N 40°12' W 073°06'0 0.0
2014-Jun-27 04:19N 40°12' W 073°06'0 0.2
2014-Jun-27 03:10N 40°12' W 073°06'0 0.0
2014-Jun-26 18:28N 40°12' W 073°06'0 0.1
2014-Jun-26 17:28N 40°12' W 073°06'0 0.1
2014-Jun-26 15:16N 40°12' W 073°06'  
Track history (hours):
 
Tides and Currents Weather Stations Pressure Air Temp Water Temp Dewpoint Dewpoint Depression Visibility Wind Speed Wind Dir Waves Ship Positions

CSAV Loncomilla

Last reported at 2014-Jul-06 14:32 UTC. Time now 2014-Jul-25 03:43 UTC.
Position N 25°41' W 080°01'.
Warning: this ship's position is 18 days out of date.

Length 261 m; draft 10.1 m.

MMSI: 477207400.

Date/timePositionNaut miles runAvg speedWind from/ knotsBaromVisibWave heightAir tempDewpointWater temp
2014-Jul-06 14:32N 25°41' W 080°01'1515.2
2014-Jul-06 13:33N 25°56' W 079°59'1111.5
2014-Jul-06 12:33N 26°07' W 080°03'4 4.0
2014-Jul-06 11:31N 26°04' W 080°07'0 0.0
2014-Jul-06 10:22N 26°04' W 080°07'0 0.0
2014-Jul-06 09:22N 26°04' W 080°07'0 0.0
2014-Jul-06 08:25N 26°04' W 080°07'0 0.0
2014-Jul-06 07:25N 26°04' W 080°07'0 0.0
2014-Jul-06 06:25N 26°04' W 080°07'0 0.0
2014-Jul-06 05:28N 26°04' W 080°07'0 0.0
2014-Jul-06 04:28N 26°04' W 080°07'0 0.0
2014-Jul-06 03:31N 26°04' W 080°07'0 0.0
2014-Jul-06 02:31N 26°04' W 080°07'0 0.0
2014-Jul-06 01:31N 26°04' W 080°07'0 0.0
2014-Jul-06 00:31N 26°04' W 080°07'0 0.0
2014-Jul-05 23:31N 26°04' W 080°07'0 0.2
2014-Jul-05 22:33N 26°05' W 080°07'5 4.6
2014-Jul-05 21:33N 26°07' W 080°03'2 2.2
2014-Jul-05 20:33N 26°09' W 080°01'5 5.1
2014-Jul-05 19:33N 26°14' W 079°60'6 5.8
2014-Jul-05 18:33N 26°19' W 079°58'6 5.7
2014-Jul-05 17:33N 26°25' W 079°58'9 9.3
2014-Jul-05 16:33N 26°34' W 079°56'1111.3
2014-Jul-05 15:33N 26°45' W 079°54'1110.8
2014-Jul-05 14:33N 26°56' W 079°53'1110.7
2014-Jul-05 13:33N 27°07' W 079°53'  
2014-Jul-03 01:06N 34°30' W 075°46'916.8
2014-Jul-03 00:33N 34°37' W 075°39'13713.6
2014-Jul-02 14:32N 36°53' W 075°54'1212.4
2014-Jul-02 13:33N 37°02' W 076°04'1817.8
2014-Jul-02 12:33N 37°20' W 076°05'9018.1
2014-Jul-02 07:33N 38°49' W 076°25'1716.8
2014-Jul-02 06:33N 39°06' W 076°24'1111.3
2014-Jul-02 05:33N 39°14' W 076°33'1 0.9
2014-Jul-02 04:32N 39°15' W 076°33'0 0.0
2014-Jul-02 03:32N 39°15' W 076°33'0 0.0
2014-Jul-02 02:32N 39°15' W 076°33'0 0.0
2014-Jul-02 01:32N 39°15' W 076°33'0 0.0
2014-Jul-02 00:30N 39°15' W 076°33'0 0.0
2014-Jul-01 23:32N 39°15' W 076°33'0 0.0
2014-Jul-01 22:32N 39°15' W 076°33'0 0.0
2014-Jul-01 21:32N 39°15' W 076°33'0 0.0
2014-Jul-01 20:32N 39°15' W 076°33'0 0.0
2014-Jul-01 19:32N 39°15' W 076°33'0 0.0
2014-Jul-01 18:29N 39°15' W 076°33'0 0.0
2014-Jul-01 17:32N 39°15' W 076°33'0 0.0
2014-Jul-01 16:32N 39°15' W 076°33'0 0.0
2014-Jul-01 15:32N 39°15' W 076°33'0 0.0
2014-Jul-01 14:32N 39°15' W 076°33'0 0.0
2014-Jul-01 13:32N 39°15' W 076°33'3 3.2
2014-Jul-01 12:33N 39°12' W 076°31'1110.8
2014-Jul-01 11:33N 39°03' W 076°23'1716.6
2014-Jul-01 10:33N 38°47' W 076°25'3919.7
2014-Jul-01 08:33N 38°09' W 076°14'2019.7
2014-Jul-01 07:33N 37°49' W 076°10'1918.6
2014-Jul-01 06:33N 37°32' W 076°02'2020.0
2014-Jul-01 05:33N 37°12' W 076°09'1818.5
2014-Jul-01 04:33N 36°56' W 075°57'1212.4
2014-Jul-01 03:34N 36°49' W 075°44'1615.5
2014-Jul-01 02:33N 36°59' W 075°29'1818.5
2014-Jul-01 01:34N 37°16' W 075°18'1918.7
2014-Jul-01 00:32N 37°32' W 075°07'1919.2
2014-Jun-30 23:34N 37°49' W 074°56'1818.4
2014-Jun-30 22:33N 38°05' W 074°44'1919.1
2014-Jun-30 21:33N 38°21' W 074°30'1918.9
2014-Jun-30 20:33N 38°37' W 074°17'1918.9
2014-Jun-30 19:33N 38°52' W 074°03'1818.3
2014-Jun-30 18:33N 39°10' W 073°56'1918.8
2014-Jun-30 17:33N 39°28' W 073°54'1918.6
2014-Jun-30 16:33N 39°47' W 073°53'1818.3
2014-Jun-30 15:33N 40°05' W 073°51'1717.4
2014-Jun-30 14:33N 40°22' W 073°48'1211.9
2014-Jun-30 13:34N 40°31' W 073°59'10 9.6
2014-Jun-30 12:33N 40°40' W 074°04'1 1.1
2014-Jun-30 11:33N 40°40' W 074°05'0 0.0
2014-Jun-30 10:32N 40°40' W 074°05'0 0.0
2014-Jun-30 09:32N 40°40' W 074°05'0 0.0
2014-Jun-30 08:32N 40°40' W 074°05'0 0.0
2014-Jun-30 07:33N 40°40' W 074°05'0 0.0
2014-Jun-30 06:32N 40°40' W 074°05'0 0.0
2014-Jun-30 05:32N 40°40' W 074°05'0 0.0
2014-Jun-30 04:32N 40°40' W 074°05'0 0.0
2014-Jun-30 03:32N 40°40' W 074°05'0 0.0
2014-Jun-30 02:33N 40°40' W 074°05'0 0.0
2014-Jun-30 01:30N 40°40' W 074°05'0 0.0
2014-Jun-30 00:32N 40°40' W 074°05'0 0.0
2014-Jun-29 23:32N 40°40' W 074°05'0 0.0
2014-Jun-29 22:32N 40°40' W 074°05'2 2.0
2014-Jun-29 21:33N 40°39' W 074°03'1111.1
2014-Jun-29 20:33N 40°30' W 073°55'1110.8
2014-Jun-29 19:33N 40°24' W 073°43'9 8.9
2014-Jun-29 18:33N 40°19' W 073°33'1110.7
2014-Jun-29 17:33N 40°14' W 073°21'9 9.1
2014-Jun-29 16:34N 40°12' W 073°09'1 1.2
2014-Jun-29 15:33N 40°13' W 073°09'1 1.2
2014-Jun-29 14:34N 40°12' W 073°08'1 0.9
2014-Jun-29 13:33N 40°12' W 073°07'0 0.4
2014-Jun-29 12:31N 40°12' W 073°06'0 0.1
2014-Jun-29 11:31N 40°12' W 073°06'0 0.0
2014-Jun-29 10:31N 40°12' W 073°06'0 0.0
2014-Jun-29 09:31N 40°12' W 073°06'0 0.0
2014-Jun-29 08:31N 40°12' W 073°06'0 0.1
2014-Jun-29 07:31N 40°12' W 073°06'0 0.0
2014-Jun-29 06:31N 40°12' W 073°06'0 0.1
2014-Jun-29 05:31N 40°12' W 073°06'0 0.0
2014-Jun-29 04:31N 40°12' W 073°06'0 0.0
2014-Jun-29 03:31N 40°12' W 073°06'0 0.1
2014-Jun-29 02:31N 40°12' W 073°06'0 0.1
2014-Jun-29 01:31N 40°12' W 073°06'0 0.1
2014-Jun-29 00:31N 40°12' W 073°06'0 0.0
2014-Jun-28 23:31N 40°12' W 073°06'0 0.0
2014-Jun-28 22:31N 40°12' W 073°06'0 0.0
2014-Jun-28 21:31N 40°12' W 073°06'0 0.0
2014-Jun-28 20:31N 40°12' W 073°06'0 0.0
2014-Jun-28 19:31N 40°12' W 073°06'0 0.0
2014-Jun-28 18:31N 40°12' W 073°06'0 0.0
2014-Jun-28 17:31N 40°12' W 073°06'0 0.1
2014-Jun-28 16:31N 40°12' W 073°06'0 0.0
2014-Jun-28 15:25N 40°12' W 073°06'0 0.0
2014-Jun-28 14:31N 40°12' W 073°06'0 0.0
2014-Jun-28 13:31N 40°12' W 073°06'0 0.0
2014-Jun-28 12:31N 40°12' W 073°06'0 0.0
2014-Jun-28 11:31N 40°12' W 073°06'0 0.1
2014-Jun-28 10:31N 40°12' W 073°06'0 0.1
2014-Jun-28 09:31N 40°12' W 073°06'0 0.1
2014-Jun-28 08:31N 40°12' W 073°06'0 0.0
2014-Jun-28 07:28N 40°12' W 073°06'0 0.0
2014-Jun-28 06:31N 40°12' W 073°06'0 0.0
2014-Jun-28 05:31N 40°12' W 073°06'0 0.0
2014-Jun-28 04:31N 40°12' W 073°06'0 0.0
2014-Jun-28 03:31N 40°12' W 073°06'0 0.0
2014-Jun-28 02:31N 40°12' W 073°06'0 0.0
2014-Jun-28 01:31N 40°12' W 073°06'0 0.0
2014-Jun-28 00:31N 40°12' W 073°06'0 0.0
2014-Jun-27 23:31N 40°12' W 073°06'0 0.0
2014-Jun-27 22:31N 40°12' W 073°06'0 0.0
2014-Jun-27 21:31N 40°12' W 073°06'0 0.0
2014-Jun-27 16:28N 40°12' W 073°06'0 0.0
2014-Jun-27 14:28N 40°12' W 073°06'0 0.0
2014-Jun-27 13:31N 40°12' W 073°06'0 0.0
2014-Jun-27 12:31N 40°12' W 073°06'0 0.0
2014-Jun-27 11:28N 40°12' W 073°06'0 0.0
2014-Jun-27 10:31N 40°12' W 073°06'0 0.0
2014-Jun-27 09:31N 40°12' W 073°06'0 0.0
2014-Jun-27 08:28N 40°12' W 073°06'0 0.0
2014-Jun-27 07:31N 40°12' W 073°06'0 0.0
2014-Jun-27 06:22N 40°12' W 073°06'0 0.0
2014-Jun-27 05:28N 40°12' W 073°06'0 0.0
2014-Jun-27 04:19N 40°12' W 073°06'0 0.2
2014-Jun-27 03:10N 40°12' W 073°06'0 0.0
2014-Jun-26 18:28N 40°12' W 073°06'0 0.1
2014-Jun-26 17:28N 40°12' W 073°06'0 0.1
2014-Jun-26 15:16N 40°12' W 073°06'  

Dump ship's entire track history